createdAt,value
2022-08-23T00:02:28.305Z,93.48
2022-08-23T00:05:09.254Z,93.41
2022-08-23T00:07:43.934Z,93.56
2022-08-23T00:10:15.071Z,93.72
2022-08-23T00:12:44.995Z,93.37
2022-08-23T00:15:18.006Z,93.63
2022-08-23T00:17:47.829Z,93.72
2022-08-23T00:20:19.841Z,93.77
2022-08-23T00:22:50.100Z,93.63
2022-08-23T00:25:19.063Z,93.71
2022-08-23T00:27:47.742Z,93.67
2022-08-23T00:30:17.950Z,93.50
2022-08-23T00:32:47.088Z,93.53
2022-08-23T00:35:22.255Z,93.72
2022-08-23T00:38:32.401Z,93.44
2022-08-23T00:40:51.380Z,93.57
2022-08-23T00:43:36.128Z,93.54
2022-08-23T00:46:23.986Z,93.75
2022-08-23T00:48:53.381Z,93.79
2022-08-23T00:51:29.420Z,93.68
2022-08-23T00:54:02.693Z,93.63
2022-08-23T00:56:35.003Z,93.75
2022-08-23T00:59:03.879Z,93.57
2022-08-23T01:01:33.567Z,93.41
2022-08-23T01:04:04.277Z,93.42
2022-08-23T01:06:37.054Z,93.54
2022-08-23T01:09:10.521Z,93.58
2022-08-23T01:11:44.234Z,93.69
2022-08-23T01:14:19.062Z,93.53
2022-08-23T01:16:52.510Z,93.47
2022-08-23T01:19:26.649Z,93.33
2022-08-23T01:22:05.279Z,93.76
2022-08-23T01:24:59.844Z,93.58
2022-08-23T01:27:26.424Z,93.21
2022-08-23T01:29:55.202Z,93.47
2022-08-23T01:32:25.971Z,93.48
2022-08-23T01:34:54.691Z,93.39
2022-08-23T01:37:23.462Z,93.40
2022-08-23T01:39:55.580Z,93.58
2022-08-23T01:42:24.774Z,93.50
2022-08-23T01:44:53.361Z,93.54
2022-08-23T01:47:22.452Z,93.40
2022-08-23T01:49:51.143Z,93.42
2022-08-23T01:52:19.864Z,93.45
2022-08-23T01:54:48.460Z,93.42
2022-08-23T01:57:18.590Z,93.34
2022-08-23T01:59:47.511Z,93.33
2022-08-23T02:02:16.383Z,93.35
2022-08-23T02:04:44.993Z,93.24
2022-08-23T02:07:13.751Z,93.31
2022-08-23T02:09:42.879Z,93.19
2022-08-23T02:12:11.591Z,93.49
2022-08-23T02:14:43.762Z,93.29
2022-08-23T02:17:20.578Z,93.50
2022-08-23T02:19:49.598Z,93.41
2022-08-23T02:22:18.709Z,93.37
2022-08-23T02:24:49.401Z,93.44
2022-08-23T02:27:18.489Z,93.59
2022-08-23T02:29:52.089Z,93.63
2022-08-23T02:32:22.282Z,93.67
2022-08-23T02:35:05.426Z,93.89
2022-08-23T02:37:36.160Z,93.98
2022-08-23T02:40:07.363Z,93.65
2022-08-23T02:42:36.684Z,94.06
2022-08-23T02:45:08.792Z,94.06
2022-08-23T02:47:45.604Z,93.97
2022-08-23T02:50:23.523Z,94.04
2022-08-23T02:52:52.310Z,94.08
2022-08-23T02:55:21.142Z,94.28
2022-08-23T02:57:49.943Z,94.26
2022-08-23T03:00:21.671Z,94.24
2022-08-23T03:02:52.640Z,94.02
2022-08-23T03:05:22.159Z,94.34
2022-08-23T03:07:50.881Z,94.34
2022-08-23T03:10:19.402Z,94.33
2022-08-23T03:12:54.565Z,94.28
2022-08-23T03:15:25.103Z,94.31
2022-08-23T03:17:53.661Z,94.27
2022-08-23T03:20:22.703Z,94.22
2022-08-23T03:22:54.665Z,94.31
2022-08-23T03:25:27.233Z,94.31
2022-08-23T03:28:08.682Z,94.24
2022-08-23T03:30:44.572Z,94.19
2022-08-23T03:33:14.795Z,94.35
2022-08-23T03:35:44.622Z,94.50
2022-08-23T03:38:15.961Z,94.43
2022-08-23T03:40:46.132Z,94.26
2022-08-23T03:43:14.984Z,94.54
2022-08-23T03:45:44.982Z,94.51
2022-08-23T03:48:14.784Z,94.71
2022-08-23T03:50:43.544Z,94.55
2022-08-23T03:53:13.262Z,94.68
2022-08-23T03:55:45.023Z,94.77
2022-08-23T03:58:18.092Z,94.69
2022-08-23T04:00:49.299Z,94.86
2022-08-23T04:03:18.401Z,94.73
2022-08-23T04:06:02.831Z,94.60
2022-08-23T04:08:34.084Z,94.61
2022-08-23T04:11:05.964Z,94.90
2022-08-23T04:13:36.393Z,94.90
2022-08-23T04:16:07.393Z,94.74
2022-08-23T04:18:36.790Z,94.80
2022-08-23T04:21:11.804Z,94.89
2022-08-23T04:23:41.034Z,94.57
2022-08-23T04:26:11.961Z,94.64
2022-08-23T04:28:43.011Z,94.52
2022-08-23T04:31:17.643Z,94.55
2022-08-23T04:33:52.324Z,94.62
2022-08-23T04:36:23.351Z,94.32
2022-08-23T04:38:54.150Z,94.63
2022-08-23T04:41:32.632Z,94.22
2022-08-23T04:44:01.862Z,94.16
2022-08-23T04:46:34.615Z,94.33
2022-08-23T04:49:05.422Z,94.25
2022-08-23T04:51:35.145Z,94.29
2022-08-23T04:54:03.994Z,94.25
2022-08-23T04:56:44.044Z,94.33
2022-08-23T04:59:21.173Z,94.27
2022-08-23T05:01:53.113Z,94.25
2022-08-23T05:04:21.854Z,94.26
2022-08-23T05:06:52.352Z,94.50
2022-08-23T05:09:25.238Z,94.18
2022-08-23T05:11:54.512Z,93.97
2022-08-23T05:14:25.522Z,93.78
2022-08-23T05:16:55.833Z,93.91
2022-08-23T05:19:25.705Z,94.04
2022-08-23T05:21:57.120Z,94.00
2022-08-23T05:24:40.726Z,93.74
2022-08-23T05:27:13.520Z,93.59
2022-08-23T05:29:43.013Z,93.59
2022-08-23T05:32:13.126Z,93.78
2022-08-23T05:34:42.350Z,93.48
2022-08-23T05:37:12.640Z,93.45
2022-08-23T05:39:43.241Z,93.44
2022-08-23T05:42:16.425Z,93.44
2022-08-23T05:44:47.448Z,93.53
2022-08-23T05:47:24.642Z,93.43
2022-08-23T05:50:17.834Z,93.77
2022-08-23T05:52:50.829Z,93.57
2022-08-23T05:55:21.889Z,93.56
2022-08-23T05:58:14.542Z,93.53
2022-08-23T06:00:43.806Z,93.44
2022-08-23T06:03:14.465Z,93.35
2022-08-23T06:05:43.811Z,93.44
2022-08-23T06:08:13.595Z,93.48
2022-08-23T06:10:42.611Z,93.32
2022-08-23T06:13:22.475Z,93.27
2022-08-23T06:15:51.127Z,93.40
2022-08-23T06:18:21.705Z,93.51
2022-08-23T06:21:02.784Z,93.51
2022-08-23T06:23:42.225Z,93.45
2022-08-23T06:26:12.684Z,93.45
2022-08-23T06:28:50.118Z,93.58
2022-08-23T06:31:41.375Z,93.47
2022-08-23T06:34:20.237Z,93.22
2022-08-23T06:37:02.093Z,93.31
2022-08-23T06:39:58.347Z,93.20
2022-08-23T06:42:39.009Z,93.30
2022-08-23T06:45:11.185Z,93.19
2022-08-23T06:47:44.134Z,93.05
2022-08-23T06:50:14.306Z,92.72
2022-08-23T06:52:54.306Z,93.06
2022-08-23T06:55:35.061Z,93.21
2022-08-23T06:58:13.903Z,92.93
2022-08-23T07:01:42.236Z,92.81
2022-08-23T07:04:15.113Z,92.68
2022-08-23T07:06:56.700Z,92.56
2022-08-23T07:09:26.530Z,92.61
2022-08-23T07:11:58.088Z,92.35
2022-08-23T07:14:27.669Z,92.11
2022-08-23T07:16:59.945Z,91.83
2022-08-23T07:19:31.258Z,91.72
2022-08-23T07:22:02.555Z,91.39
2022-08-23T07:24:33.476Z,91.42
2022-08-23T07:27:07.382Z,91.27
2022-08-23T07:29:41.758Z,91.04
2022-08-23T07:32:11.836Z,91.01
2022-08-23T07:34:42.178Z,90.78
2022-08-23T07:37:15.561Z,90.82
2022-08-23T07:39:45.533Z,90.29
2022-08-23T07:42:23.117Z,90.07
2022-08-23T07:44:58.045Z,90.17
2022-08-23T07:47:30.784Z,89.96
2022-08-23T07:50:01.367Z,89.68
2022-08-23T07:52:33.685Z,89.25
2022-08-23T07:55:02.547Z,89.27
2022-08-23T07:57:51.126Z,88.98
2022-08-23T08:00:30.762Z,88.48
2022-08-23T08:03:13.408Z,88.71
2022-08-23T08:06:01.810Z,88.64
2022-08-23T08:08:33.326Z,89.05
2022-08-23T08:11:02.108Z,89.01
2022-08-23T08:13:32.202Z,89.34
2022-08-23T08:16:01.979Z,89.25
2022-08-23T08:18:33.520Z,89.74
2022-08-23T08:21:29.710Z,89.76
2022-08-23T08:24:20.377Z,89.89
2022-08-23T08:26:53.040Z,90.06
2022-08-23T08:29:22.200Z,90.02
2022-08-23T08:31:54.452Z,90.44
2022-08-23T08:34:23.859Z,90.44
2022-08-23T08:36:54.658Z,90.64
2022-08-23T08:39:31.081Z,90.73
2022-08-23T08:42:19.298Z,90.67
2022-08-23T08:44:52.816Z,90.28
2022-08-23T08:47:36.403Z,90.29
2022-08-23T08:50:15.137Z,90.46
2022-08-23T08:52:49.326Z,90.54
2022-08-23T08:55:38.977Z,90.58
2022-08-23T08:58:08.720Z,90.33
2022-08-23T09:00:41.057Z,90.33
2022-08-23T09:03:14.451Z,90.14
2022-08-23T09:05:54.037Z,89.60
2022-08-23T09:08:38.769Z,89.25
2022-08-23T09:11:16.122Z,89.24
2022-08-23T09:14:03.009Z,88.58
2022-08-23T09:16:49.379Z,88.75
2022-08-23T09:19:21.070Z,88.28
2022-08-23T09:21:58.031Z,87.88
2022-08-23T09:24:28.827Z,87.49
2022-08-23T09:27:22.790Z,87.28
2022-08-23T09:29:57.691Z,87.65
2022-08-23T09:32:34.035Z,87.81
2022-08-23T09:35:16.421Z,87.73
2022-08-23T09:38:01.050Z,88.05
2022-08-23T09:40:38.902Z,88.05
2022-08-23T09:43:17.031Z,88.03
2022-08-23T09:45:58.364Z,88.00
2022-08-23T09:48:40.114Z,87.35
2022-08-23T09:51:24.084Z,87.11
2022-08-23T09:54:07.021Z,86.80
2022-08-23T09:56:40.505Z,87.00
2022-08-23T09:59:32.302Z,86.73
2022-08-23T10:02:17.487Z,86.74
2022-08-23T10:04:59.166Z,86.94
2022-08-23T10:07:35.217Z,86.59
2022-08-23T10:10:23.573Z,86.17
2022-08-23T10:12:59.519Z,85.60
2022-08-23T10:15:42.699Z,85.67
2022-08-23T10:18:20.873Z,85.73
2022-08-23T10:20:58.146Z,85.72
2022-08-23T10:23:41.985Z,85.66
2022-08-23T10:26:23.518Z,85.65
2022-08-23T10:29:09.668Z,85.86
2022-08-23T10:31:49.905Z,85.94
2022-08-23T10:34:30.029Z,85.87
2022-08-23T10:37:14.614Z,85.24
2022-08-23T10:39:50.099Z,84.43
2022-08-23T10:42:28.196Z,84.11
2022-08-23T10:45:04.784Z,84.01
2022-08-23T10:47:42.056Z,83.47
2022-08-23T10:50:22.365Z,83.01
2022-08-23T10:52:55.895Z,83.02
2022-08-23T10:55:43.893Z,82.99
2022-08-23T10:58:24.237Z,82.57
2022-08-23T11:00:56.358Z,81.86
2022-08-23T11:03:31.287Z,81.92
2022-08-23T11:06:22.852Z,81.99
2022-08-23T11:09:00.314Z,81.93
2022-08-23T11:11:42.525Z,81.83
2022-08-23T11:14:26.688Z,81.78
2022-08-23T11:17:00.778Z,81.97
2022-08-23T11:19:49.306Z,82.04
2022-08-23T11:22:20.995Z,82.15
2022-08-23T11:24:59.234Z,81.97
2022-08-23T11:27:40.695Z,81.83
2022-08-23T11:30:39.327Z,81.90
2022-08-23T11:33:19.108Z,81.70
2022-08-23T11:35:52.036Z,81.70
2022-08-23T11:38:47.609Z,81.82
2022-08-23T11:41:25.129Z,81.90
2022-08-23T11:44:20.165Z,81.87
2022-08-23T11:47:01.765Z,81.94
2022-08-23T11:49:52.999Z,81.32
2022-08-23T11:52:31.538Z,80.67
2022-08-23T11:55:19.510Z,80.40
2022-08-23T11:57:59.140Z,80.50
2022-08-23T12:00:47.855Z,80.27
2022-08-23T12:03:26.116Z,80.24
2022-08-23T12:06:10.319Z,79.66
2022-08-23T12:08:55.736Z,79.53
2022-08-23T12:11:26.873Z,79.21
2022-08-23T12:14:02.825Z,78.60
2022-08-23T12:16:44.201Z,78.18
2022-08-23T12:19:33.293Z,78.17
2022-08-23T12:22:11.985Z,78.21
2022-08-23T12:24:54.688Z,78.05
2022-08-23T12:27:33.024Z,78.00
2022-08-23T12:30:07.627Z,77.15
2022-08-23T12:32:47.155Z,76.80
2022-08-23T12:35:33.766Z,77.07
2022-08-23T12:38:08.122Z,77.09
2022-08-23T12:40:42.716Z,76.43
2022-08-23T12:43:22.567Z,75.51
2022-08-23T12:45:54.111Z,74.20
2022-08-23T12:48:29.306Z,73.77
2022-08-23T12:51:00.174Z,73.32
2022-08-23T12:53:31.565Z,72.82
2022-08-23T12:56:12.840Z,72.66
2022-08-23T12:58:46.944Z,71.68
2022-08-23T13:01:22.638Z,71.85
2022-08-23T13:03:56.138Z,71.23
2022-08-23T13:06:29.275Z,71.67
2022-08-23T13:09:02.524Z,70.83
2022-08-23T13:11:35.194Z,70.33
2022-08-23T13:14:24.668Z,70.16
2022-08-23T13:16:54.079Z,70.37
2022-08-23T13:19:27.585Z,70.32
2022-08-23T13:22:13.778Z,69.83
2022-08-23T13:24:45.699Z,70.02
2022-08-23T13:27:20.677Z,70.40
2022-08-23T13:29:55.073Z,70.40
2022-08-23T13:32:33.740Z,70.48
2022-08-23T13:35:24.320Z,71.70
2022-08-23T13:37:55.459Z,71.92
2022-08-23T13:40:27.358Z,72.02
2022-08-23T13:43:02.654Z,71.97
2022-08-23T13:45:34.045Z,71.44
2022-08-23T13:48:09.159Z,70.36
2022-08-23T13:50:38.875Z,70.08
2022-08-23T13:53:14.915Z,69.79
2022-08-23T13:55:49.090Z,69.34
2022-08-23T13:58:29.106Z,69.27
2022-08-23T14:00:58.890Z,69.28
2022-08-23T14:03:31.731Z,69.03
2022-08-23T14:06:00.535Z,68.99
2022-08-23T14:08:29.341Z,69.19
2022-08-23T14:10:58.142Z,68.54
2022-08-23T14:13:31.038Z,68.74
2022-08-23T14:21:46.979Z,67.81
2022-08-23T14:24:15.389Z,68.03
2022-08-23T14:26:50.269Z,68.44
2022-08-23T14:29:22.851Z,68.03
2022-08-23T14:31:52.712Z,67.63
2022-08-23T14:34:22.257Z,67.24
2022-08-23T14:39:40.819Z,67.76
2022-08-23T14:42:10.540Z,67.62
2022-08-23T14:44:40.799Z,67.66
2022-08-23T14:47:09.720Z,67.26
2022-08-23T14:49:38.879Z,67.01
2022-08-23T14:52:07.702Z,66.99
2022-08-23T14:54:36.557Z,67.47
2022-08-23T14:57:05.729Z,67.53
2022-08-23T14:59:34.511Z,67.82
2022-08-23T15:02:07.238Z,67.72
2022-08-23T15:04:36.413Z,67.62
2022-08-23T15:07:21.691Z,67.23
2022-08-23T15:09:55.117Z,66.72
2022-08-23T15:15:17.471Z,66.98
2022-08-23T15:17:55.446Z,67.17
2022-08-23T15:20:28.090Z,66.99
2022-08-23T15:22:57.101Z,66.68
2022-08-23T15:25:27.333Z,67.40
2022-08-23T15:27:56.659Z,67.42
2022-08-23T15:30:26.073Z,67.58
2022-08-23T15:33:00.810Z,67.75
2022-08-23T15:35:31.465Z,68.60
2022-08-23T15:38:00.690Z,68.72
2022-08-23T15:40:29.524Z,68.59
2022-08-23T15:42:58.290Z,67.94
2022-08-23T15:45:27.297Z,68.24
2022-08-23T15:47:59.167Z,69.28
2022-08-23T15:50:33.009Z,69.58
2022-08-23T15:53:01.954Z,70.05
2022-08-23T15:55:33.745Z,70.33
2022-08-23T15:58:02.501Z,71.06
2022-08-23T16:00:31.908Z,71.07
2022-08-23T16:03:20.526Z,71.20
2022-08-23T16:05:54.279Z,72.00
2022-08-23T16:08:27.081Z,72.47
2022-08-23T16:10:56.642Z,72.19
2022-08-23T16:13:26.042Z,72.62
2022-08-23T16:15:55.017Z,72.47
2022-08-23T16:18:23.718Z,72.38
2022-08-23T16:20:54.430Z,72.58
2022-08-23T16:23:26.685Z,72.74
2022-08-23T16:26:00.781Z,73.12
2022-08-23T16:28:31.169Z,73.57
2022-08-23T16:30:59.948Z,73.86
2022-08-23T16:33:28.684Z,73.87
2022-08-23T16:35:58.933Z,74.09
2022-08-23T16:38:27.938Z,74.21
2022-08-23T16:40:56.599Z,74.00
2022-08-23T16:43:25.254Z,74.10
2022-08-23T16:45:54.268Z,74.34
2022-08-23T16:48:23.108Z,74.50
2022-08-23T16:50:52.152Z,75.02
2022-08-23T16:53:22.329Z,75.06
2022-08-23T16:55:51.039Z,75.03
2022-08-23T16:58:19.882Z,75.05
2022-08-23T17:00:50.762Z,74.99
2022-08-23T17:03:20.341Z,75.16
2022-08-23T17:05:49.659Z,75.42
2022-08-23T17:08:18.692Z,75.88
2022-08-23T17:10:49.142Z,76.28
2022-08-23T17:13:18.891Z,76.46
2022-08-23T17:15:47.558Z,76.70
2022-08-23T17:18:16.209Z,76.99
2022-08-23T17:20:45.119Z,76.97
2022-08-23T17:23:14.185Z,76.94
2022-08-23T17:25:48.119Z,76.86
2022-08-23T17:28:19.288Z,76.94
2022-08-23T17:30:48.019Z,77.26
2022-08-23T17:33:16.699Z,77.34
2022-08-23T17:35:46.620Z,77.53
2022-08-23T17:38:15.799Z,77.84
2022-08-23T17:40:44.602Z,78.02
2022-08-23T17:43:13.809Z,77.81
2022-08-23T17:45:47.507Z,78.10
2022-08-23T17:48:17.892Z,78.07
2022-08-23T17:50:48.217Z,78.25
2022-08-23T17:53:18.969Z,78.46
2022-08-23T17:55:48.098Z,78.79
2022-08-23T17:58:17.517Z,78.98
2022-08-23T18:00:49.292Z,79.29
2022-08-23T18:03:18.189Z,79.57
2022-08-23T18:05:48.237Z,79.94
2022-08-23T18:08:17.197Z,80.12
2022-08-23T18:10:46.189Z,80.44
2022-08-23T18:13:14.880Z,80.73
2022-08-23T18:15:43.867Z,81.05
2022-08-23T18:18:14.819Z,81.20
2022-08-23T18:20:43.698Z,81.24
2022-08-23T18:23:13.339Z,81.36
2022-08-23T18:25:42.208Z,81.41
2022-08-23T18:28:12.279Z,81.51
2022-08-23T18:30:48.528Z,81.68
2022-08-23T18:33:20.818Z,81.98
2022-08-23T18:35:54.149Z,82.14
2022-08-23T18:38:22.899Z,82.16
2022-08-23T18:40:51.791Z,82.36
2022-08-23T18:43:23.219Z,82.49
2022-08-23T18:45:54.351Z,82.58
2022-08-23T18:48:26.234Z,82.90
2022-08-23T18:50:55.473Z,82.84
2022-08-23T18:53:24.307Z,83.24
2022-08-23T18:55:56.284Z,83.20
2022-08-23T18:58:25.235Z,83.81
2022-08-23T19:00:56.212Z,83.78
2022-08-23T19:03:27.091Z,83.66
2022-08-23T19:05:56.213Z,83.92
2022-08-23T19:08:24.918Z,83.94
2022-08-23T19:10:53.839Z,84.48
2022-08-23T19:13:22.619Z,84.54
2022-08-23T19:15:52.664Z,84.87
2022-08-23T19:18:21.740Z,84.84
2022-08-23T19:20:52.210Z,85.18
2022-08-23T19:23:21.848Z,85.46
2022-08-23T19:25:52.432Z,85.39
2022-08-23T19:28:23.579Z,85.53
2022-08-23T19:30:52.478Z,85.60
2022-08-23T19:33:21.369Z,85.76
2022-08-23T19:35:51.605Z,85.91
2022-08-23T19:38:24.144Z,85.81
2022-08-23T19:40:52.888Z,85.90
2022-08-23T19:43:21.840Z,86.10
2022-08-23T19:45:51.801Z,85.96
2022-08-23T19:48:21.571Z,86.16
2022-08-23T19:50:51.941Z,86.29
2022-08-23T19:53:23.494Z,86.48
2022-08-23T19:55:52.453Z,86.34
2022-08-23T19:58:23.322Z,86.44
2022-08-23T20:00:52.125Z,86.37
2022-08-23T20:03:22.610Z,86.44
2022-08-23T20:05:53.142Z,86.63
2022-08-23T20:08:21.903Z,86.67
2022-08-23T20:10:50.710Z,86.80
2022-08-23T20:13:20.504Z,86.65
2022-08-23T20:15:53.084Z,86.34
2022-08-23T20:18:25.110Z,86.63
2022-08-23T20:20:55.701Z,86.83
2022-08-23T20:23:34.282Z,87.01
2022-08-23T20:26:03.352Z,86.94
2022-08-23T20:28:31.963Z,87.10
2022-08-23T20:31:08.034Z,87.17
2022-08-23T20:33:37.021Z,87.11
2022-08-23T20:36:07.306Z,87.28
2022-08-23T20:38:36.373Z,87.38
2022-08-23T20:41:05.353Z,87.66
2022-08-23T20:43:35.993Z,87.53
2022-08-23T20:46:05.342Z,87.43
2022-08-23T20:48:34.982Z,87.87
2022-08-23T20:51:08.133Z,87.50
2022-08-23T20:53:37.720Z,87.74
2022-08-23T20:56:06.944Z,87.53
2022-08-23T20:58:36.022Z,87.70
2022-08-23T21:01:09.364Z,87.85
2022-08-23T21:03:40.730Z,87.80
2022-08-23T21:06:20.068Z,87.89
2022-08-23T21:08:53.567Z,88.10
2022-08-23T21:11:25.373Z,88.18
2022-08-23T21:13:54.189Z,88.14
2022-08-23T21:16:24.482Z,88.04
2022-08-23T21:18:55.580Z,88.25
2022-08-23T21:21:26.550Z,88.23
2022-08-23T21:23:56.026Z,88.57
2022-08-23T21:26:25.295Z,88.37
2022-08-23T21:28:54.492Z,88.62
2022-08-23T21:31:25.569Z,88.62
2022-08-23T21:33:55.096Z,88.50
2022-08-23T21:36:25.785Z,88.75
2022-08-23T21:38:54.545Z,88.84
2022-08-23T21:41:34.684Z,88.92
2022-08-23T21:44:05.832Z,89.05
2022-08-23T21:46:36.493Z,88.94
2022-08-23T21:49:05.650Z,88.95
2022-08-23T21:51:38.781Z,89.00
2022-08-23T21:54:09.275Z,89.11
2022-08-23T21:56:38.154Z,89.26
2022-08-23T21:59:09.816Z,89.11
2022-08-23T22:01:38.824Z,89.38
2022-08-23T22:04:10.061Z,89.37
2022-08-23T22:06:41.235Z,89.54
2022-08-23T22:09:13.282Z,89.53
2022-08-23T22:11:44.472Z,89.79
2022-08-23T22:14:16.766Z,89.97
2022-08-23T22:16:45.603Z,89.93
2022-08-23T22:19:15.383Z,89.80
2022-08-23T22:21:48.125Z,89.72
2022-08-23T22:24:20.014Z,90.05
2022-08-23T22:26:51.114Z,89.79
2022-08-23T22:29:19.710Z,89.83
2022-08-23T22:31:49.201Z,89.69
2022-08-23T22:34:17.641Z,89.85
2022-08-23T22:36:51.925Z,89.75
2022-08-23T22:39:22.194Z,89.76
2022-08-23T22:41:51.076Z,89.71
2022-08-23T22:44:20.117Z,89.82
2022-08-23T22:46:49.088Z,89.81
2022-08-23T22:49:20.877Z,89.90
2022-08-23T22:51:54.993Z,89.76
2022-08-23T22:54:24.873Z,89.96
2022-08-23T22:56:55.379Z,89.95
2022-08-23T22:59:27.624Z,89.93
2022-08-23T23:02:03.377Z,89.86
2022-08-23T23:04:33.913Z,89.97
2022-08-23T23:07:04.052Z,89.73
2022-08-23T23:09:32.807Z,89.71
2022-08-23T23:12:01.430Z,89.57
2022-08-23T23:14:30.749Z,89.61
2022-08-23T23:16:59.509Z,89.67
2022-08-23T23:19:38.419Z,89.66
2022-08-23T23:22:10.547Z,89.80
2022-08-23T23:24:41.310Z,89.82
2022-08-23T23:27:10.268Z,89.94
2022-08-23T23:29:38.957Z,90.07
2022-08-23T23:32:07.993Z,90.12
2022-08-23T23:34:38.304Z,90.12
2022-08-23T23:37:08.429Z,90.21
2022-08-23T23:39:37.208Z,90.17
2022-08-23T23:42:05.879Z,90.14
2022-08-23T23:44:34.756Z,90.37
2022-08-23T23:47:03.458Z,90.35
2022-08-23T23:49:33.479Z,90.37
2022-08-23T23:52:08.741Z,90.33
2022-08-23T23:54:38.770Z,90.51
2022-08-23T23:57:08.038Z,90.48
2022-08-23T23:59:37.254Z,90.45
